Aviation Digital Data Service (ADDS)

Output produced by METARs form (2257 UTC 23 October 2019)
found at http://www.aviationweather.gov/metar/data/
 
METAR text: LTFJ 232220Z 03006KT 9999 FEW023 13/12 Q1020 NOSIG RMK RWY24 36004KT
Conditions at: LTFJ (SABIHA GOKCEN , TR) observed 2220 UTC 23 October 2019
Temperature: 13.0°C (55°F)
Dewpoint: 12.0°C (54°F) [RH = 94%]
Pressure (altimeter): 30.12 inches Hg (1020.0 mb)
Winds: from the NNE (30 degrees) at 7 MPH (6 knots; 3.1 m/s)
Visibility: 6 or more miles (10+ km)
Ceiling: at least 12,000 feet AGL
Clouds: few clouds at 2300 feet AGL
Weather: no significant weather observed at this time

METAR text: LTFJ 232150Z 04005KT 9999 FEW023 13/11 Q1020 NOSIG RMK RWY24 36004KT
Conditions at: LTFJ (SABIHA GOKCEN , TR) observed 2150 UTC 23 October 2019
Temperature: 13.0°C (55°F)
Dewpoint: 11.0°C (52°F) [RH = 88%]
Pressure (altimeter): 30.12 inches Hg (1020.0 mb)
Winds: from the NE (40 degrees) at 6 MPH (5 knots; 2.6 m/s)
Visibility: 6 or more miles (10+ km)
Ceiling: at least 12,000 feet AGL
Clouds: few clouds at 2300 feet AGL
Weather: no significant weather observed at this time

METAR text: LTFJ 232120Z 04007KT 9999 FEW023 14/12 Q1020 NOSIG RMK RWY24 03004KT
Conditions at: LTFJ (SABIHA GOKCEN , TR) observed 2120 UTC 23 October 2019
Temperature: 14.0°C (57°F)
Dewpoint: 12.0°C (54°F) [RH = 88%]
Pressure (altimeter): 30.12 inches Hg (1020.0 mb)
Winds: from the NE (40 degrees) at 8 MPH (7 knots; 3.6 m/s)
Visibility: 6 or more miles (10+ km)
Ceiling: at least 12,000 feet AGL
Clouds: few clouds at 2300 feet AGL
Weather: no significant weather observed at this time

METAR text: LTFJ 232050Z 04007KT 9999 FEW025 15/12 Q1020 NOSIG RMK RWY24 06004KT 040V100
Conditions at: LTFJ (SABIHA GOKCEN , TR) observed 2050 UTC 23 October 2019
Temperature: 15.0°C (59°F)
Dewpoint: 12.0°C (54°F) [RH = 82%]
Pressure (altimeter): 30.12 inches Hg (1020.0 mb)
Winds: from the NE (40 degrees) at 8 MPH (7 knots; 3.6 m/s)
Visibility: 6 or more miles (10+ km)
Ceiling: at least 12,000 feet AGL
Clouds: few clouds at 2500 feet AGL
Weather: no significant weather observed at this time

METAR text: LTFJ 232020Z 04006KT 9999 SCT025 14/12 Q1021 NOSIG RMK RWY24 03005KT
Conditions at: LTFJ (SABIHA GOKCEN , TR) observed 2020 UTC 23 October 2019
Temperature: 14.0°C (57°F)
Dewpoint: 12.0°C (54°F) [RH = 88%]
Pressure (altimeter): 30.15 inches Hg (1021.0 mb)
Winds: from the NE (40 degrees) at 7 MPH (6 knots; 3.1 m/s)
Visibility: 6 or more miles (10+ km)
Ceiling: at least 12,000 feet AGL
Clouds: scattered clouds at 2500 feet AGL
Weather: no significant weather observed at this time

METAR text: LTFJ 231950Z 04006KT 9999 SCT025 15/12 Q1020 NOSIG RMK RWY24 06004KT
Conditions at: LTFJ (SABIHA GOKCEN , TR) observed 1950 UTC 23 October 2019
Temperature: 15.0°C (59°F)
Dewpoint: 12.0°C (54°F) [RH = 82%]
Pressure (altimeter): 30.12 inches Hg (1020.0 mb)
Winds: from the NE (40 degrees) at 7 MPH (6 knots; 3.1 m/s)
Visibility: 6 or more miles (10+ km)
Ceiling: at least 12,000 feet AGL
Clouds: scattered clouds at 2500 feet AGL
Weather: no significant weather observed at this time

METAR text: LTFJ 231920Z 04006KT 9999 SCT025 15/12 Q1021 NOSIG RMK RWY24 03007KT
Conditions at: LTFJ (SABIHA GOKCEN , TR) observed 1920 UTC 23 October 2019
Temperature: 15.0°C (59°F)
Dewpoint: 12.0°C (54°F) [RH = 82%]
Pressure (altimeter): 30.15 inches Hg (1021.0 mb)
Winds: from the NE (40 degrees) at 7 MPH (6 knots; 3.1 m/s)
Visibility: 6 or more miles (10+ km)
Ceiling: at least 12,000 feet AGL
Clouds: scattered clouds at 2500 feet AGL
Weather: no significant weather observed at this time

METAR text: LTFJ 231850Z 04008KT 9999 SCT025 15/13 Q1021 NOSIG RMK RWY24 04006KT
Conditions at: LTFJ (SABIHA GOKCEN , TR) observed 1850 UTC 23 October 2019
Temperature: 15.0°C (59°F)
Dewpoint: 13.0°C (55°F) [RH = 88%]
Pressure (altimeter): 30.15 inches Hg (1021.0 mb)
Winds: from the NE (40 degrees) at 9 MPH (8 knots; 4.1 m/s)
Visibility: 6 or more miles (10+ km)
Ceiling: at least 12,000 feet AGL
Clouds: scattered clouds at 2500 feet AGL
Weather: no significant weather observed at this time

METAR text: LTFJ 231820Z 04010KT 9999 SCT025 15/13 Q1020 NOSIG RMK RWY24 03005KT
Conditions at: LTFJ (SABIHA GOKCEN , TR) observed 1820 UTC 23 October 2019
Temperature: 15.0°C (59°F)
Dewpoint: 13.0°C (55°F) [RH = 88%]
Pressure (altimeter): 30.12 inches Hg (1020.0 mb)
Winds: from the NE (40 degrees) at 12 MPH (10 knots; 5.1 m/s)
Visibility: 6 or more miles (10+ km)
Ceiling: at least 12,000 feet AGL
Clouds: scattered clouds at 2500 feet AGL
Weather: no significant weather observed at this time

METAR text: LTFJ 231750Z 04010KT 9999 SCT025 15/13 Q1020 NOSIG RMK RWY24 04005KT
Conditions at: LTFJ (SABIHA GOKCEN , TR) observed 1750 UTC 23 October 2019
Temperature: 15.0°C (59°F)
Dewpoint: 13.0°C (55°F) [RH = 88%]
Pressure (altimeter): 30.12 inches Hg (1020.0 mb)
Winds: from the NE (40 degrees) at 12 MPH (10 knots; 5.1 m/s)
Visibility: 6 or more miles (10+ km)
Ceiling: at least 12,000 feet AGL
Clouds: scattered clouds at 2500 feet AGL
Weather: no significant weather observed at this time

METAR text: LTFJ 231720Z 04010KT 9999 SCT025 16/13 Q1021 NOSIG RMK RWY24 04006KT
Conditions at: LTFJ (SABIHA GOKCEN , TR) observed 1720 UTC 23 October 2019
Temperature: 16.0°C (61°F)
Dewpoint: 13.0°C (55°F) [RH = 82%]
Pressure (altimeter): 30.15 inches Hg (1021.0 mb)
Winds: from the NE (40 degrees) at 12 MPH (10 knots; 5.1 m/s)
Visibility: 6 or more miles (10+ km)
Ceiling: at least 12,000 feet AGL
Clouds: scattered clouds at 2500 feet AGL
Weather: no significant weather observed at this time

METAR text: LTFJ 231650Z 05008KT 9999 SCT026 16/13 Q1021 NOSIG RMK RWY24 04004KT
Conditions at: LTFJ (SABIHA GOKCEN , TR) observed 1650 UTC 23 October 2019
Temperature: 16.0°C (61°F)
Dewpoint: 13.0°C (55°F) [RH = 82%]
Pressure (altimeter): 30.15 inches Hg (1021.0 mb)
Winds: from the NE (50 degrees) at 9 MPH (8 knots; 4.1 m/s)
Visibility: 6 or more miles (10+ km)
Ceiling: at least 12,000 feet AGL
Clouds: scattered clouds at 2600 feet AGL
Weather: no significant weather observed at this time

METAR text: LTFJ 231620Z 05009KT 9999 FEW026 16/13 Q1021 NOSIG RMK RWY24 04006KT
Conditions at: LTFJ (SABIHA GOKCEN , TR) observed 1620 UTC 23 October 2019
Temperature: 16.0°C (61°F)
Dewpoint: 13.0°C (55°F) [RH = 82%]
Pressure (altimeter): 30.15 inches Hg (1021.0 mb)
Winds: from the NE (50 degrees) at 10 MPH (9 knots; 4.6 m/s)
Visibility: 6 or more miles (10+ km)
Ceiling: at least 12,000 feet AGL
Clouds: few clouds at 2600 feet AGL
Weather: no significant weather observed at this time

METAR text: LTFJ 231550Z 04008KT CAVOK 17/13 Q1021 NOSIG RMK RWY24 03006KT
Conditions at: LTFJ (SABIHA GOKCEN , TR) observed 1550 UTC 23 October 2019
Temperature: 17.0°C (63°F)
Dewpoint: 13.0°C (55°F) [RH = 77%]
Pressure (altimeter): 30.15 inches Hg (1021.0 mb)
Winds: from the NE (40 degrees) at 9 MPH (8 knots; 4.1 m/s)
Visibility: 6 or more miles (10+ km)
Ceiling: ceiling and visibility are OK
Clouds: unknown
Weather: no significant weather observed at this time

METAR text: LTFJ 231520Z 05009KT 9999 FEW026 17/13 Q1021 NOSIG RMK RWY24 04009KT
Conditions at: LTFJ (SABIHA GOKCEN , TR) observed 1520 UTC 23 October 2019
Temperature: 17.0°C (63°F)
Dewpoint: 13.0°C (55°F) [RH = 77%]
Pressure (altimeter): 30.15 inches Hg (1021.0 mb)
Winds: from the NE (50 degrees) at 10 MPH (9 knots; 4.6 m/s)
Visibility: 6 or more miles (10+ km)
Ceiling: at least 12,000 feet AGL
Clouds: few clouds at 2600 feet AGL
Weather: no significant weather observed at this time

METAR text: LTFJ 231450Z 05014KT 9999 FEW026 18/12 Q1020 NOSIG RMK RWY24 04009KT
Conditions at: LTFJ (SABIHA GOKCEN , TR) observed 1450 UTC 23 October 2019
Temperature: 18.0°C (64°F)
Dewpoint: 12.0°C (54°F) [RH = 68%]
Pressure (altimeter): 30.12 inches Hg (1020.0 mb)
Winds: from the NE (50 degrees) at 16 MPH (14 knots; 7.2 m/s)
Visibility: 6 or more miles (10+ km)
Ceiling: at least 12,000 feet AGL
Clouds: few clouds at 2600 feet AGL
Weather: no significant weather observed at this time

METAR text: LTFJ 231420Z 04013KT 9999 FEW026 19/13 Q1020 NOSIG RMK RWY24 03011KT 360V060
Conditions at: LTFJ (SABIHA GOKCEN , TR) observed 1420 UTC 23 October 2019
Temperature: 19.0°C (66°F)
Dewpoint: 13.0°C (55°F) [RH = 68%]
Pressure (altimeter): 30.12 inches Hg (1020.0 mb)
Winds: from the NE (40 degrees) at 15 MPH (13 knots; 6.7 m/s)
Visibility: 6 or more miles (10+ km)
Ceiling: at least 12,000 feet AGL
Clouds: few clouds at 2600 feet AGL
Weather: no significant weather observed at this time

METAR text: LTFJ 231350Z 04015KT 9999 FEW030 19/13 Q1020 NOSIG RMK RWY24 03013KT
Conditions at: LTFJ (SABIHA GOKCEN , TR) observed 1350 UTC 23 October 2019
Temperature: 19.0°C (66°F)
Dewpoint: 13.0°C (55°F) [RH = 68%]
Pressure (altimeter): 30.12 inches Hg (1020.0 mb)
Winds: from the NE (40 degrees) at 17 MPH (15 knots; 7.7 m/s)
Visibility: 6 or more miles (10+ km)
Ceiling: at least 12,000 feet AGL
Clouds: few clouds at 3000 feet AGL
Weather: no significant weather observed at this time

METAR text: LTFJ 231320Z 04016KT 360V060 9999 FEW030 20/13 Q1020 NOSIG RMK RWY24 03013KT
Conditions at: LTFJ (SABIHA GOKCEN , TR) observed 1320 UTC 23 October 2019
Temperature: 20.0°C (68°F)
Dewpoint: 13.0°C (55°F) [RH = 64%]
Pressure (altimeter): 30.12 inches Hg (1020.0 mb)
Winds: from the NE (40 degrees) at 18 MPH (16 knots; 8.2 m/s)
Visibility: 6 or more miles (10+ km)
Ceiling: at least 12,000 feet AGL
Clouds: few clouds at 3000 feet AGL
Weather: no significant weather observed at this time

METAR text: LTFJ 231250Z 04015KT 9999 FEW030 20/13 Q1020 NOSIG RMK RWY24 02012KT 350V060
Conditions at: LTFJ (SABIHA GOKCEN , TR) observed 1250 UTC 23 October 2019
Temperature: 20.0°C (68°F)
Dewpoint: 13.0°C (55°F) [RH = 64%]
Pressure (altimeter): 30.12 inches Hg (1020.0 mb)
Winds: from the NE (40 degrees) at 17 MPH (15 knots; 7.7 m/s)
Visibility: 6 or more miles (10+ km)
Ceiling: at least 12,000 feet AGL
Clouds: few clouds at 3000 feet AGL
Weather: no significant weather observed at this time

METAR text: LTFJ 231220Z 04014KT 9999 FEW030 21/13 Q1020 NOSIG RMK RWY24 03013KT 360V060
Conditions at: LTFJ (SABIHA GOKCEN , TR) observed 1220 UTC 23 October 2019
Temperature: 21.0°C (70°F)
Dewpoint: 13.0°C (55°F) [RH = 60%]
Pressure (altimeter): 30.12 inches Hg (1020.0 mb)
Winds: from the NE (40 degrees) at 16 MPH (14 knots; 7.2 m/s)
Visibility: 6 or more miles (10+ km)
Ceiling: at least 12,000 feet AGL
Clouds: few clouds at 3000 feet AGL
Weather: no significant weather observed at this time

METAR text: LTFJ 231150Z 03015KT 350V070 9999 FEW030 21/13 Q1020 NOSIG RMK RWY24 02013KT
Conditions at: LTFJ (SABIHA GOKCEN , TR) observed 1150 UTC 23 October 2019
Temperature: 21.0°C (70°F)
Dewpoint: 13.0°C (55°F) [RH = 60%]
Pressure (altimeter): 30.12 inches Hg (1020.0 mb)
Winds: from the NNE (30 degrees) at 17 MPH (15 knots; 7.7 m/s)
Visibility: 6 or more miles (10+ km)
Ceiling: at least 12,000 feet AGL
Clouds: few clouds at 3000 feet AGL
Weather: no significant weather observed at this time

METAR text: LTFJ 231120Z 04014KT 010V080 9999 SCT029 21/13 Q1020 NOSIG RMK RWY24 04013KT 360V060
Conditions at: LTFJ (SABIHA GOKCEN , TR) observed 1120 UTC 23 October 2019
Temperature: 21.0°C (70°F)
Dewpoint: 13.0°C (55°F) [RH = 60%]
Pressure (altimeter): 30.12 inches Hg (1020.0 mb)
Winds: from the NE (40 degrees) at 16 MPH (14 knots; 7.2 m/s)
Visibility: 6 or more miles (10+ km)
Ceiling: at least 12,000 feet AGL
Clouds: scattered clouds at 2900 feet AGL
Weather: no significant weather observed at this time

METAR text: LTFJ 231050Z 03012KT 360V060 9999 SCT029 21/13 Q1020 NOSIG RMK RWY24 02011KT 350V050
Conditions at: LTFJ (SABIHA GOKCEN , TR) observed 1050 UTC 23 October 2019
Temperature: 21.0°C (70°F)
Dewpoint: 13.0°C (55°F) [RH = 60%]
Pressure (altimeter): 30.12 inches Hg (1020.0 mb)
Winds: from the NNE (30 degrees) at 14 MPH (12 knots; 6.2 m/s)
Visibility: 6 or more miles (10+ km)
Ceiling: at least 12,000 feet AGL
Clouds: scattered clouds at 2900 feet AGL
Weather: no significant weather observed at this time

METAR text: LTFJ 231020Z 03014KT 010V070 9999 SCT029 21/13 Q1021 NOSIG RMK RWY24 02011KT 350V050
Conditions at: LTFJ (SABIHA GOKCEN , TR) observed 1020 UTC 23 October 2019
Temperature: 21.0°C (70°F)
Dewpoint: 13.0°C (55°F) [RH = 60%]
Pressure (altimeter): 30.15 inches Hg (1021.0 mb)
Winds: from the NNE (30 degrees) at 16 MPH (14 knots; 7.2 m/s)
Visibility: 6 or more miles (10+ km)
Ceiling: at least 12,000 feet AGL
Clouds: scattered clouds at 2900 feet AGL
Weather: no significant weather observed at this time

METAR text: LTFJ 230950Z 03014KT 010V070 9999 SCT029 21/13 Q1021 NOSIG RMK RWY24 01010KT
Conditions at: LTFJ (SABIHA GOKCEN , TR) observed 0950 UTC 23 October 2019
Temperature: 21.0°C (70°F)
Dewpoint: 13.0°C (55°F) [RH = 60%]
Pressure (altimeter): 30.15 inches Hg (1021.0 mb)
Winds: from the NNE (30 degrees) at 16 MPH (14 knots; 7.2 m/s)
Visibility: 6 or more miles (10+ km)
Ceiling: at least 12,000 feet AGL
Clouds: scattered clouds at 2900 feet AGL
Weather: no significant weather observed at this time

METAR text: LTFJ 230920Z 03014KT 9999 SCT029 21/13 Q1021 NOSIG RMK RWY24 03010KT 350V060
Conditions at: LTFJ (SABIHA GOKCEN , TR) observed 0920 UTC 23 October 2019
Temperature: 21.0°C (70°F)
Dewpoint: 13.0°C (55°F) [RH = 60%]
Pressure (altimeter): 30.15 inches Hg (1021.0 mb)
Winds: from the NNE (30 degrees) at 16 MPH (14 knots; 7.2 m/s)
Visibility: 6 or more miles (10+ km)
Ceiling: at least 12,000 feet AGL
Clouds: scattered clouds at 2900 feet AGL
Weather: no significant weather observed at this time

METAR text: LTFJ 230850Z 05012KT 9999 SCT026 21/13 Q1022 NOSIG RMK RWY24 04010KT
Conditions at: LTFJ (SABIHA GOKCEN , TR) observed 0850 UTC 23 October 2019
Temperature: 21.0°C (70°F)
Dewpoint: 13.0°C (55°F) [RH = 60%]
Pressure (altimeter): 30.18 inches Hg (1022.0 mb)
Winds: from the NE (50 degrees) at 14 MPH (12 knots; 6.2 m/s)
Visibility: 6 or more miles (10+ km)
Ceiling: at least 12,000 feet AGL
Clouds: scattered clouds at 2600 feet AGL
Weather: no significant weather observed at this time

METAR text: LTFJ 230820Z 04012KT 9999 SCT023 20/13 Q1022 NOSIG RMK RWY24 02010KT 350V050
Conditions at: LTFJ (SABIHA GOKCEN , TR) observed 0820 UTC 23 October 2019
Temperature: 20.0°C (68°F)
Dewpoint: 13.0°C (55°F) [RH = 64%]
Pressure (altimeter): 30.18 inches Hg (1022.0 mb)
Winds: from the NE (40 degrees) at 14 MPH (12 knots; 6.2 m/s)
Visibility: 6 or more miles (10+ km)
Ceiling: at least 12,000 feet AGL
Clouds: scattered clouds at 2300 feet AGL
Weather: no significant weather observed at this time

METAR text: LTFJ 230750Z 06011KT 9999 SCT023 20/14 Q1022 NOSIG RMK RWY24 05011KT 030V090
Conditions at: LTFJ (SABIHA GOKCEN , TR) observed 0750 UTC 23 October 2019
Temperature: 20.0°C (68°F)
Dewpoint: 14.0°C (57°F) [RH = 68%]
Pressure (altimeter): 30.18 inches Hg (1022.0 mb)
Winds: from the ENE (60 degrees) at 13 MPH (11 knots; 5.7 m/s)
Visibility: 6 or more miles (10+ km)
Ceiling: at least 12,000 feet AGL
Clouds: scattered clouds at 2300 feet AGL
Weather: no significant weather observed at this time

METAR text: LTFJ 230720Z 04010KT 9999 SCT023 18/14 Q1022 NOSIG RMK RWY24 03009KT
Conditions at: LTFJ (SABIHA GOKCEN , TR) observed 0720 UTC 23 October 2019
Temperature: 18.0°C (64°F)
Dewpoint: 14.0°C (57°F) [RH = 77%]
Pressure (altimeter): 30.18 inches Hg (1022.0 mb)
Winds: from the NE (40 degrees) at 12 MPH (10 knots; 5.1 m/s)
Visibility: 6 or more miles (10+ km)
Ceiling: at least 12,000 feet AGL
Clouds: scattered clouds at 2300 feet AGL
Weather: no significant weather observed at this time

METAR text: LTFJ 230650Z 05009KT 9999 SCT023 17/15 Q1023 NOSIG RMK RWY24 03005KT 360V060
Conditions at: LTFJ (SABIHA GOKCEN , TR) observed 0650 UTC 23 October 2019
Temperature: 17.0°C (63°F)
Dewpoint: 15.0°C (59°F) [RH = 88%]
Pressure (altimeter): 30.21 inches Hg (1023.0 mb)
Winds: from the NE (50 degrees) at 10 MPH (9 knots; 4.6 m/s)
Visibility: 6 or more miles (10+ km)
Ceiling: at least 12,000 feet AGL
Clouds: scattered clouds at 2300 feet AGL
Weather: no significant weather observed at this time

METAR text: LTFJ 230620Z 07008KT 9999 SCT023 16/14 Q1022 NOSIG RMK RWY24 05005KT
Conditions at: LTFJ (SABIHA GOKCEN , TR) observed 0620 UTC 23 October 2019
Temperature: 16.0°C (61°F)
Dewpoint: 14.0°C (57°F) [RH = 88%]
Pressure (altimeter): 30.18 inches Hg (1022.0 mb)
Winds: from the ENE (70 degrees) at 9 MPH (8 knots; 4.1 m/s)
Visibility: 6 or more miles (10+ km)
Ceiling: at least 12,000 feet AGL
Clouds: scattered clouds at 2300 feet AGL
Weather: no significant weather observed at this time

METAR text: LTFJ 230550Z 07006KT 9999 FEW030 15/14 Q1022 NOSIG RMK RWY24 05005KT
Conditions at: LTFJ (SABIHA GOKCEN , TR) observed 0550 UTC 23 October 2019
Temperature: 15.0°C (59°F)
Dewpoint: 14.0°C (57°F) [RH = 94%]
Pressure (altimeter): 30.18 inches Hg (1022.0 mb)
Winds: from the ENE (70 degrees) at 7 MPH (6 knots; 3.1 m/s)
Visibility: 6 or more miles (10+ km)
Ceiling: at least 12,000 feet AGL
Clouds: few clouds at 3000 feet AGL
Weather: no significant weather observed at this time

METAR text: LTFJ 230520Z 07004KT 9999 FEW015 15/13 Q1022 NOSIG RMK RWY24 05004KT 360V080
Conditions at: LTFJ (SABIHA GOKCEN , TR) observed 0520 UTC 23 October 2019
Temperature: 15.0°C (59°F)
Dewpoint: 13.0°C (55°F) [RH = 88%]
Pressure (altimeter): 30.18 inches Hg (1022.0 mb)
Winds: from the ENE (70 degrees) at 5 MPH (4 knots; 2.1 m/s)
Visibility: 6 or more miles (10+ km)
Ceiling: at least 12,000 feet AGL
Clouds: few clouds at 1500 feet AGL
Weather: no significant weather observed at this time

METAR text: LTFJ 230450Z 06005KT 9999 FEW015 14/13 Q1022 NOSIG RMK RWY24 VRB01KT
Conditions at: LTFJ (SABIHA GOKCEN , TR) observed 0450 UTC 23 October 2019
Temperature: 14.0°C (57°F)
Dewpoint: 13.0°C (55°F) [RH = 94%]
Pressure (altimeter): 30.18 inches Hg (1022.0 mb)
Winds: from the ENE (60 degrees) at 6 MPH (5 knots; 2.6 m/s)
Visibility: 6 or more miles (10+ km)
Ceiling: at least 12,000 feet AGL
Clouds: few clouds at 1500 feet AGL
Weather: no significant weather observed at this time

METAR text: LTFJ 230420Z 05007KT 9999 FEW015 14/13 Q1022 NOSIG RMK RWY24 VRB02KT
Conditions at: LTFJ (SABIHA GOKCEN , TR) observed 0420 UTC 23 October 2019
Temperature: 14.0°C (57°F)
Dewpoint: 13.0°C (55°F) [RH = 94%]
Pressure (altimeter): 30.18 inches Hg (1022.0 mb)
Winds: from the NE (50 degrees) at 8 MPH (7 knots; 3.6 m/s)
Visibility: 6 or more miles (10+ km)
Ceiling: at least 12,000 feet AGL
Clouds: few clouds at 1500 feet AGL
Weather: no significant weather observed at this time

METAR text: LTFJ 230350Z 05006KT CAVOK 14/13 Q1022 NOSIG RMK RWY24 01003KT
Conditions at: LTFJ (SABIHA GOKCEN , TR) observed 0350 UTC 23 October 2019
Temperature: 14.0°C (57°F)
Dewpoint: 13.0°C (55°F) [RH = 94%]
Pressure (altimeter): 30.18 inches Hg (1022.0 mb)
Winds: from the NE (50 degrees) at 7 MPH (6 knots; 3.1 m/s)
Visibility: 6 or more miles (10+ km)
Ceiling: ceiling and visibility are OK
Clouds: unknown
Weather: no significant weather observed at this time

METAR text: LTFJ 230320Z 04008KT CAVOK 14/13 Q1022 NOSIG RMK RWY24 03004KT
Conditions at: LTFJ (SABIHA GOKCEN , TR) observed 0320 UTC 23 October 2019
Temperature: 14.0°C (57°F)
Dewpoint: 13.0°C (55°F) [RH = 94%]
Pressure (altimeter): 30.18 inches Hg (1022.0 mb)
Winds: from the NE (40 degrees) at 9 MPH (8 knots; 4.1 m/s)
Visibility: 6 or more miles (10+ km)
Ceiling: ceiling and visibility are OK
Clouds: unknown
Weather: no significant weather observed at this time

METAR text: LTFJ 230250Z 06007KT 8000 NSC 14/13 Q1022 NOSIG RMK RWY24 VRB02KT
Conditions at: LTFJ (SABIHA GOKCEN , TR) observed 0250 UTC 23 October 2019
Temperature: 14.0°C (57°F)
Dewpoint: 13.0°C (55°F) [RH = 94%]
Pressure (altimeter): 30.18 inches Hg (1022.0 mb)
Winds: from the ENE (60 degrees) at 8 MPH (7 knots; 3.6 m/s)
Visibility: 5 miles ( 8 km)
Ceiling: at least 12,000 feet AGL
Clouds: sky clear below 12,000 feet AGL
Weather: no significant weather observed at this time

METAR text: LTFJ 230220Z 06007KT 9999 FEW019 14/13 Q1022 NOSIG RMK RWY24 06003KT 030V100
Conditions at: LTFJ (SABIHA GOKCEN , TR) observed 0220 UTC 23 October 2019
Temperature: 14.0°C (57°F)
Dewpoint: 13.0°C (55°F) [RH = 94%]
Pressure (altimeter): 30.18 inches Hg (1022.0 mb)
Winds: from the ENE (60 degrees) at 8 MPH (7 knots; 3.6 m/s)
Visibility: 6 or more miles (10+ km)
Ceiling: at least 12,000 feet AGL
Clouds: few clouds at 1900 feet AGL
Weather: no significant weather observed at this time

METAR text: LTFJ 230150Z 06007KT 9999 SCT015 14/13 Q1022 NOSIG RMK RWY24 02005KT
Conditions at: LTFJ (SABIHA GOKCEN , TR) observed 0150 UTC 23 October 2019
Temperature: 14.0°C (57°F)
Dewpoint: 13.0°C (55°F) [RH = 94%]
Pressure (altimeter): 30.18 inches Hg (1022.0 mb)
Winds: from the ENE (60 degrees) at 8 MPH (7 knots; 3.6 m/s)
Visibility: 6 or more miles (10+ km)
Ceiling: at least 12,000 feet AGL
Clouds: scattered clouds at 1500 feet AGL
Weather: no significant weather observed at this time

METAR text: LTFJ 230120Z 06007KT 9999 SCT017 14/13 Q1022 NOSIG RMK RWY24 05004KT
Conditions at: LTFJ (SABIHA GOKCEN , TR) observed 0120 UTC 23 October 2019
Temperature: 14.0°C (57°F)
Dewpoint: 13.0°C (55°F) [RH = 94%]
Pressure (altimeter): 30.18 inches Hg (1022.0 mb)
Winds: from the ENE (60 degrees) at 8 MPH (7 knots; 3.6 m/s)
Visibility: 6 or more miles (10+ km)
Ceiling: at least 12,000 feet AGL
Clouds: scattered clouds at 1700 feet AGL
Weather: no significant weather observed at this time

METAR text: LTFJ 230050Z 03011KT 9999 FEW023 SCT029 15/13 Q1022 NOSIG RMK RWY24 03005KT
Conditions at: LTFJ (SABIHA GOKCEN , TR) observed 0050 UTC 23 October 2019
Temperature: 15.0°C (59°F)
Dewpoint: 13.0°C (55°F) [RH = 88%]
Pressure (altimeter): 30.18 inches Hg (1022.0 mb)
Winds: from the NNE (30 degrees) at 13 MPH (11 knots; 5.7 m/s)
Visibility: 6 or more miles (10+ km)
Ceiling: at least 12,000 feet AGL
Clouds: few clouds at 2300 feet AGL
scattered clouds at 2900 feet AGL
Weather: no significant weather observed at this time

METAR text: LTFJ 230020Z 03013KT 9999 SCT026 15/13 Q1021 NOSIG RMK RWY24 04008KT
Conditions at: LTFJ (SABIHA GOKCEN , TR) observed 0020 UTC 23 October 2019
Temperature: 15.0°C (59°F)
Dewpoint: 13.0°C (55°F) [RH = 88%]
Pressure (altimeter): 30.15 inches Hg (1021.0 mb)
Winds: from the NNE (30 degrees) at 15 MPH (13 knots; 6.7 m/s)
Visibility: 6 or more miles (10+ km)
Ceiling: at least 12,000 feet AGL
Clouds: scattered clouds at 2600 feet AGL
Weather: no significant weather observed at this time

METAR text: LTFJ 222350Z 03009KT CAVOK 14/13 Q1022 NOSIG RMK RWY24 03009KT
Conditions at: LTFJ (SABIHA GOKCEN , TR) observed 2350 UTC 22 October 2019
Temperature: 14.0°C (57°F)
Dewpoint: 13.0°C (55°F) [RH = 94%]
Pressure (altimeter): 30.18 inches Hg (1022.0 mb)
Winds: from the NNE (30 degrees) at 10 MPH (9 knots; 4.6 m/s)
Visibility: 6 or more miles (10+ km)
Ceiling: ceiling and visibility are OK
Clouds: unknown
Weather: no significant weather observed at this time

METAR text: LTFJ 222320Z 06007KT CAVOK 14/13 Q1022 NOSIG RMK RWY24 03005KT
Conditions at: LTFJ (SABIHA GOKCEN , TR) observed 2320 UTC 22 October 2019
Temperature: 14.0°C (57°F)
Dewpoint: 13.0°C (55°F) [RH = 94%]
Pressure (altimeter): 30.18 inches Hg (1022.0 mb)
Winds: from the ENE (60 degrees) at 8 MPH (7 knots; 3.6 m/s)
Visibility: 6 or more miles (10+ km)
Ceiling: ceiling and visibility are OK
Clouds: unknown
Weather: no significant weather observed at this time

METAR text: LTFJ 222250Z 03008KT CAVOK 15/13 Q1022 NOSIG RMK RWY24 03004KT
Conditions at: LTFJ (SABIHA GOKCEN , TR) observed 2250 UTC 22 October 2019
Temperature: 15.0°C (59°F)
Dewpoint: 13.0°C (55°F) [RH = 88%]
Pressure (altimeter): 30.18 inches Hg (1022.0 mb)
Winds: from the NNE (30 degrees) at 9 MPH (8 knots; 4.1 m/s)
Visibility: 6 or more miles (10+ km)
Ceiling: ceiling and visibility are OK
Clouds: unknown
Weather: no significant weather observed at this time

METAR text: LTFJ 222220Z 04009KT CAVOK 15/13 Q1022 NOSIG RMK RWY24 06003KT 010V120
Conditions at: LTFJ (SABIHA GOKCEN , TR) observed 2220 UTC 22 October 2019
Temperature: 15.0°C (59°F)
Dewpoint: 13.0°C (55°F) [RH = 88%]
Pressure (altimeter): 30.18 inches Hg (1022.0 mb)
Winds: from the NE (40 degrees) at 10 MPH (9 knots; 4.6 m/s)
Visibility: 6 or more miles (10+ km)
Ceiling: ceiling and visibility are OK
Clouds: unknown
Weather: no significant weather observed at this time

METAR text: LTFJ 222150Z 04008KT CAVOK 16/13 Q1022 NOSIG RMK RWY24 02008KT
Conditions at: LTFJ (SABIHA GOKCEN , TR) observed 2150 UTC 22 October 2019
Temperature: 16.0°C (61°F)
Dewpoint: 13.0°C (55°F) [RH = 82%]
Pressure (altimeter): 30.18 inches Hg (1022.0 mb)
Winds: from the NE (40 degrees) at 9 MPH (8 knots; 4.1 m/s)
Visibility: 6 or more miles (10+ km)
Ceiling: ceiling and visibility are OK
Clouds: unknown
Weather: no significant weather observed at this time

METAR text: LTFJ 222120Z 04009KT CAVOK 16/14 Q1022 NOSIG RMK RWY24 02009KT
Conditions at: LTFJ (SABIHA GOKCEN , TR) observed 2120 UTC 22 October 2019
Temperature: 16.0°C (61°F)
Dewpoint: 14.0°C (57°F) [RH = 88%]
Pressure (altimeter): 30.18 inches Hg (1022.0 mb)
Winds: from the NE (40 degrees) at 10 MPH (9 knots; 4.6 m/s)
Visibility: 6 or more miles (10+ km)
Ceiling: ceiling and visibility are OK
Clouds: unknown
Weather: no significant weather observed at this time

METAR text: LTFJ 222050Z 03011KT CAVOK 16/14 Q1022 NOSIG RMK RWY24 02011KT
Conditions at: LTFJ (SABIHA GOKCEN , TR) observed 2050 UTC 22 October 2019
Temperature: 16.0°C (61°F)
Dewpoint: 14.0°C (57°F) [RH = 88%]
Pressure (altimeter): 30.18 inches Hg (1022.0 mb)
Winds: from the NNE (30 degrees) at 13 MPH (11 knots; 5.7 m/s)
Visibility: 6 or more miles (10+ km)
Ceiling: ceiling and visibility are OK
Clouds: unknown
Weather: no significant weather observed at this time

METAR text: LTFJ 222020Z 03012KT CAVOK 16/14 Q1022 NOSIG RMK RWY24 01012KT
Conditions at: LTFJ (SABIHA GOKCEN , TR) observed 2020 UTC 22 October 2019
Temperature: 16.0°C (61°F)
Dewpoint: 14.0°C (57°F) [RH = 88%]
Pressure (altimeter): 30.18 inches Hg (1022.0 mb)
Winds: from the NNE (30 degrees) at 14 MPH (12 knots; 6.2 m/s)
Visibility: 6 or more miles (10+ km)
Ceiling: ceiling and visibility are OK
Clouds: unknown
Weather: no significant weather observed at this time

METAR text: LTFJ 221950Z 03010KT 9999 FEW035 16/14 Q1022 NOSIG RMK RWY24 01009KT
Conditions at: LTFJ (SABIHA GOKCEN , TR) observed 1950 UTC 22 October 2019
Temperature: 16.0°C (61°F)
Dewpoint: 14.0°C (57°F) [RH = 88%]
Pressure (altimeter): 30.18 inches Hg (1022.0 mb)
Winds: from the NNE (30 degrees) at 12 MPH (10 knots; 5.1 m/s)
Visibility: 6 or more miles (10+ km)
Ceiling: at least 12,000 feet AGL
Clouds: few clouds at 3500 feet AGL
Weather: no significant weather observed at this time

METAR text: LTFJ 221920Z 02010KT 9999 FEW035 17/14 Q1022 NOSIG RMK RWY24 36010KT
Conditions at: LTFJ (SABIHA GOKCEN , TR) observed 1920 UTC 22 October 2019
Temperature: 17.0°C (63°F)
Dewpoint: 14.0°C (57°F) [RH = 82%]
Pressure (altimeter): 30.18 inches Hg (1022.0 mb)
Winds: from the NNE (20 degrees) at 12 MPH (10 knots; 5.1 m/s)
Visibility: 6 or more miles (10+ km)
Ceiling: at least 12,000 feet AGL
Clouds: few clouds at 3500 feet AGL
Weather: no significant weather observed at this time

METAR text: LTFJ 221850Z 03012KT 9999 SCT035 17/14 Q1022 NOSIG RMK RWY24 02011KT
Conditions at: LTFJ (SABIHA GOKCEN , TR) observed 1850 UTC 22 October 2019
Temperature: 17.0°C (63°F)
Dewpoint: 14.0°C (57°F) [RH = 82%]
Pressure (altimeter): 30.18 inches Hg (1022.0 mb)
Winds: from the NNE (30 degrees) at 14 MPH (12 knots; 6.2 m/s)
Visibility: 6 or more miles (10+ km)
Ceiling: at least 12,000 feet AGL
Clouds: scattered clouds at 3500 feet AGL
Weather: no significant weather observed at this time

METAR text: LTFJ 221820Z 04011KT 9999 SCT035 17/14 Q1022 NOSIG RMK RWY24 03010KT
Conditions at: LTFJ (SABIHA GOKCEN , TR) observed 1820 UTC 22 October 2019
Temperature: 17.0°C (63°F)
Dewpoint: 14.0°C (57°F) [RH = 82%]
Pressure (altimeter): 30.18 inches Hg (1022.0 mb)
Winds: from the NE (40 degrees) at 13 MPH (11 knots; 5.7 m/s)
Visibility: 6 or more miles (10+ km)
Ceiling: at least 12,000 feet AGL
Clouds: scattered clouds at 3500 feet AGL
Weather: no significant weather observed at this time

METAR text: LTFJ 221750Z 03012KT 9999 SCT040 17/14 Q1022 NOSIG RMK RWY24 02010KT
Conditions at: LTFJ (SABIHA GOKCEN , TR) observed 1750 UTC 22 October 2019
Temperature: 17.0°C (63°F)
Dewpoint: 14.0°C (57°F) [RH = 82%]
Pressure (altimeter): 30.18 inches Hg (1022.0 mb)
Winds: from the NNE (30 degrees) at 14 MPH (12 knots; 6.2 m/s)
Visibility: 6 or more miles (10+ km)
Ceiling: at least 12,000 feet AGL
Clouds: scattered clouds at 4000 feet AGL
Weather: no significant weather observed at this time

METAR text: LTFJ 221720Z 04010KT 9999 BKN040 17/14 Q1022 NOSIG RMK RWY24 03008KT
Conditions at: LTFJ (SABIHA GOKCEN , TR) observed 1720 UTC 22 October 2019
Temperature: 17.0°C (63°F)
Dewpoint: 14.0°C (57°F) [RH = 82%]
Pressure (altimeter): 30.18 inches Hg (1022.0 mb)
Winds: from the NE (40 degrees) at 12 MPH (10 knots; 5.1 m/s)
Visibility: 6 or more miles (10+ km)
Ceiling: 4000 feet AGL
Clouds: broken clouds at 4000 feet AGL
Weather: no significant weather observed at this time

METAR text: LTFJ 221650Z 04010KT 9999 BKN035 17/15 Q1022 NOSIG RMK RWY24 02010KT
Conditions at: LTFJ (SABIHA GOKCEN , TR) observed 1650 UTC 22 October 2019
Temperature: 17.0°C (63°F)
Dewpoint: 15.0°C (59°F) [RH = 88%]
Pressure (altimeter): 30.18 inches Hg (1022.0 mb)
Winds: from the NE (40 degrees) at 12 MPH (10 knots; 5.1 m/s)
Visibility: 6 or more miles (10+ km)
Ceiling: 3500 feet AGL
Clouds: broken clouds at 3500 feet AGL
Weather: no significant weather observed at this time

METAR text: LTFJ 221620Z 04010KT 9999 BKN035 17/14 Q1022 NOSIG RMK RWY24 02010KT
Conditions at: LTFJ (SABIHA GOKCEN , TR) observed 1620 UTC 22 October 2019
Temperature: 17.0°C (63°F)
Dewpoint: 14.0°C (57°F) [RH = 82%]
Pressure (altimeter): 30.18 inches Hg (1022.0 mb)
Winds: from the NE (40 degrees) at 12 MPH (10 knots; 5.1 m/s)
Visibility: 6 or more miles (10+ km)
Ceiling: 3500 feet AGL
Clouds: broken clouds at 3500 feet AGL
Weather: no significant weather observed at this time

METAR text: LTFJ 221550Z 03012KT 9999 SCT017 BKN035 18/14 Q1022 NOSIG RMK RWY24 02011KT
Conditions at: LTFJ (SABIHA GOKCEN , TR) observed 1550 UTC 22 October 2019
Temperature: 18.0°C (64°F)
Dewpoint: 14.0°C (57°F) [RH = 77%]
Pressure (altimeter): 30.18 inches Hg (1022.0 mb)
Winds: from the NNE (30 degrees) at 14 MPH (12 knots; 6.2 m/s)
Visibility: 6 or more miles (10+ km)
Ceiling: 3500 feet AGL
Clouds: scattered clouds at 1700 feet AGL
broken clouds at 3500 feet AGL
Weather: no significant weather observed at this time

METAR text: LTFJ 221520Z 02013KT 9999 SCT015 BKN035 18/15 Q1022 NOSIG RMK RWY24 01012KT
Conditions at: LTFJ (SABIHA GOKCEN , TR) observed 1520 UTC 22 October 2019
Temperature: 18.0°C (64°F)
Dewpoint: 15.0°C (59°F) [RH = 83%]
Pressure (altimeter): 30.18 inches Hg (1022.0 mb)
Winds: from the NNE (20 degrees) at 15 MPH (13 knots; 6.7 m/s)
Visibility: 6 or more miles (10+ km)
Ceiling: 3500 feet AGL
Clouds: scattered clouds at 1500 feet AGL
broken clouds at 3500 feet AGL
Weather: no significant weather observed at this time

METAR text: LTFJ 221450Z 03012KT 9999 SCT015 BKN035 18/15 Q1022 NOSIG RMK RWY24 02011KT
Conditions at: LTFJ (SABIHA GOKCEN , TR) observed 1450 UTC 22 October 2019
Temperature: 18.0°C (64°F)
Dewpoint: 15.0°C (59°F) [RH = 83%]
Pressure (altimeter): 30.18 inches Hg (1022.0 mb)
Winds: from the NNE (30 degrees) at 14 MPH (12 knots; 6.2 m/s)
Visibility: 6 or more miles (10+ km)
Ceiling: 3500 feet AGL
Clouds: scattered clouds at 1500 feet AGL
broken clouds at 3500 feet AGL
Weather: no significant weather observed at this time

METAR text: LTFJ 221420Z 04013KT 9999 SCT015 BKN030 19/15 Q1021 NOSIG RMK RWY24 02012KT
Conditions at: LTFJ (SABIHA GOKCEN , TR) observed 1420 UTC 22 October 2019
Temperature: 19.0°C (66°F)
Dewpoint: 15.0°C (59°F) [RH = 78%]
Pressure (altimeter): 30.15 inches Hg (1021.0 mb)
Winds: from the NE (40 degrees) at 15 MPH (13 knots; 6.7 m/s)
Visibility: 6 or more miles (10+ km)
Ceiling: 3000 feet AGL
Clouds: scattered clouds at 1500 feet AGL
broken clouds at 3000 feet AGL
Weather: no significant weather observed at this time

METAR text: LTFJ 221350Z 04015KT 9999 SCT015 BKN030 19/15 Q1021 NOSIG RMK RWY24 02009KT
Conditions at: LTFJ (SABIHA GOKCEN , TR) observed 1350 UTC 22 October 2019
Temperature: 19.0°C (66°F)
Dewpoint: 15.0°C (59°F) [RH = 78%]
Pressure (altimeter): 30.15 inches Hg (1021.0 mb)
Winds: from the NE (40 degrees) at 17 MPH (15 knots; 7.7 m/s)
Visibility: 6 or more miles (10+ km)
Ceiling: 3000 feet AGL
Clouds: scattered clouds at 1500 feet AGL
broken clouds at 3000 feet AGL
Weather: no significant weather observed at this time

METAR text: LTFJ 221320Z 04015KT 9999 SCT015 BKN030 19/15 Q1021 NOSIG RMK RWY24 03012KT
Conditions at: LTFJ (SABIHA GOKCEN , TR) observed 1320 UTC 22 October 2019
Temperature: 19.0°C (66°F)
Dewpoint: 15.0°C (59°F) [RH = 78%]
Pressure (altimeter): 30.15 inches Hg (1021.0 mb)
Winds: from the NE (40 degrees) at 17 MPH (15 knots; 7.7 m/s)
Visibility: 6 or more miles (10+ km)
Ceiling: 3000 feet AGL
Clouds: scattered clouds at 1500 feet AGL
broken clouds at 3000 feet AGL
Weather: no significant weather observed at this time

METAR text: LTFJ 221250Z 05015KT 9999 SCT015 BKN030 19/15 Q1021 NOSIG RMK RWY24 03011KT
Conditions at: LTFJ (SABIHA GOKCEN , TR) observed 1250 UTC 22 October 2019
Temperature: 19.0°C (66°F)
Dewpoint: 15.0°C (59°F) [RH = 78%]
Pressure (altimeter): 30.15 inches Hg (1021.0 mb)
Winds: from the NE (50 degrees) at 17 MPH (15 knots; 7.7 m/s)
Visibility: 6 or more miles (10+ km)
Ceiling: 3000 feet AGL
Clouds: scattered clouds at 1500 feet AGL
broken clouds at 3000 feet AGL
Weather: no significant weather observed at this time

METAR text: LTFJ 221220Z 05015KT 9999 SCT015 BKN030 19/16 Q1021 NOSIG RMK RWY24 03012KT
Conditions at: LTFJ (SABIHA GOKCEN , TR) observed 1220 UTC 22 October 2019
Temperature: 19.0°C (66°F)
Dewpoint: 16.0°C (61°F) [RH = 83%]
Pressure (altimeter): 30.15 inches Hg (1021.0 mb)
Winds: from the NE (50 degrees) at 17 MPH (15 knots; 7.7 m/s)
Visibility: 6 or more miles (10+ km)
Ceiling: 3000 feet AGL
Clouds: scattered clouds at 1500 feet AGL
broken clouds at 3000 feet AGL
Weather: no significant weather observed at this time

METAR text: LTFJ 221150Z 04014KT 010V070 9999 SCT015 BKN030 20/16 Q1021 NOSIG RMK RWY24 03013KT
Conditions at: LTFJ (SABIHA GOKCEN , TR) observed 1150 UTC 22 October 2019
Temperature: 20.0°C (68°F)
Dewpoint: 16.0°C (61°F) [RH = 78%]
Pressure (altimeter): 30.15 inches Hg (1021.0 mb)
Winds: from the NE (40 degrees) at 16 MPH (14 knots; 7.2 m/s)
Visibility: 6 or more miles (10+ km)
Ceiling: 3000 feet AGL
Clouds: scattered clouds at 1500 feet AGL
broken clouds at 3000 feet AGL
Weather: no significant weather observed at this time

METAR text: LTFJ 221120Z 03016KT 9999 SCT013 BKN030 19/16 Q1021 NOSIG RMK RWY24 02012KT
Conditions at: LTFJ (SABIHA GOKCEN , TR) observed 1120 UTC 22 October 2019
Temperature: 19.0°C (66°F)
Dewpoint: 16.0°C (61°F) [RH = 83%]
Pressure (altimeter): 30.15 inches Hg (1021.0 mb)
Winds: from the NNE (30 degrees) at 18 MPH (16 knots; 8.2 m/s)
Visibility: 6 or more miles (10+ km)
Ceiling: 3000 feet AGL
Clouds: scattered clouds at 1300 feet AGL
broken clouds at 3000 feet AGL
Weather: no significant weather observed at this time

Forecast for: LTFJ (SABIHA GOKCEN , TR)
Text: TAF LTFJ 231640Z 2318/2418 03005KT 9999 SCT020
Forecast period: 1800 UTC 23 October 2019 to 0800 UTC 24 October 2019
Forecast type: FROM: standard forecast or significant change
Winds: from the NNE (30 degrees) at 6 MPH (5 knots; 2.6 m/s)
Visibility: 6 or more miles 10+ km)
Ceiling: at least 12,000 feet AGL
Clouds: scattered clouds at 2000 feet AGL
Weather: no significant weather forecast for this period
Text: TEMPO 2400/2404 BKN012
Forecast period: 0000 to 0400 UTC 24 October 2019
Forecast type: TEMPORARY: The following changes expected for less than half the time period
Visibility: missing
Ceiling: 1200 feet AGL
Clouds: broken clouds at 1200 feet AGL
Weather: no significant weather forecast for this period
Text: BECMG 2408/2411 03015KT
Forecast period: 0800 to 1800 UTC 24 October 2019
Forecast type: BECOMING: Conditions expected to become as follows by 1100 UTC 24 October 2019
Winds: from the NNE (30 degrees) at 17 MPH (15 knots; 7.7 m/s)
Visibility: 6 or more miles 10+ km)
Ceiling: at least 12,000 feet AGL
Clouds: scattered clouds at 2000 feet AGL
Weather: no significant weather forecast for this period